Time;durP1;ratioP1;P1;durP2;ratioP2;P2;SDS_P1;SDS_P2;PMS_P1;PMS_P2;Temp;Humidity;BMP_temperature;BMP_pressure;BME280_temperature;BME280_humidity;BME280_pressure;Samples;Min_cycle;Max_cycle;Signal;HPM_P1;HPM_P2
2023/09/15 00:00:43;;;;;;;3.97;2.37;;;14.10;99.90;;;;;;4918247;29;20507;-68
2023/09/15 00:03:09;;;;;;;3.77;3.20;;;14.10;99.90;;;;;;4916965;29;20424;-69
2023/09/15 00:05:34;;;;;;;3.73;2.80;;;14.10;99.90;;;;;;4918308;29;20408;-70
2023/09/15 00:08:04;;;;;;;4.77;3.10;;;14.10;99.90;;;;;;4918356;29;20958;-71
2023/09/15 00:10:40;;;;;;;10.50;3.03;;;14.10;99.90;;;;;;4918205;29;20247;-69
2023/09/15 00:13:05;;;;;;;3.50;2.83;;;14.10;99.90;;;;;;4918306;29;20486;-71
2023/09/15 00:15:32;;;;;;;3.57;2.47;;;14.10;99.90;;;;;;4918119;29;20950;-70
2023/09/15 00:17:59;;;;;;;2.83;2.63;;;14.10;99.90;;;;;;4918229;29;20242;-70
2023/09/15 00:20:25;;;;;;;5.27;2.47;;;14.00;99.90;;;;;;4918070;29;20460;-71
2023/09/15 00:22:52;;;;;;;3.77;3.13;;;14.10;99.90;;;;;;4917904;29;20792;-70
2023/09/15 00:25:19;;;;;;;5.33;2.93;;;14.00;99.90;;;;;;4940007;23;20565;-70
2023/09/15 00:27:53;;;;;;;6.17;2.93;;;14.10;99.90;;;;;;4937239;29;20498;-70
2023/09/15 00:30:20;;;;;;;4.03;2.73;;;14.00;99.90;;;;;;4936926;29;20430;-70
2023/09/15 00:32:48;;;;;;;5.53;3.20;;;14.00;99.90;;;;;;4936831;29;20781;-71
2023/09/15 00:35:18;;;;;;;3.43;3.13;;;14.00;99.90;;;;;;4928332;29;20442;-71
2023/09/15 00:37:48;;;;;;;4.90;3.03;;;14.10;99.90;;;;;;4917799;29;20459;-71
2023/09/15 00:40:15;;;;;;;2.70;2.50;;;14.10;99.90;;;;;;4918418;29;20417;-70
2023/09/15 00:42:44;;;;;;;4.83;2.83;;;14.10;99.90;;;;;;4917854;29;20420;-71
2023/09/15 00:45:14;;;;;;;4.27;2.63;;;14.10;99.90;;;;;;4917852;29;20462;-71
2023/09/15 00:47:43;;;;;;;2.87;2.40;;;14.00;99.90;;;;;;4917733;29;20412;-71
2023/09/15 00:50:11;;;;;;;3.53;2.70;;;14.00;99.90;;;;;;4917624;29;20412;-71
2023/09/15 00:52:37;;;;;;;3.50;2.40;;;14.00;99.90;;;;;;4917301;29;20412;-71
2023/09/15 00:55:03;;;;;;;3.97;2.60;;;14.00;99.90;;;;;;4917506;29;20585;-71
2023/09/15 00:57:29;;;;;;;2.80;2.60;;;14.00;99.90;;;;;;4917397;29;20931;-71
2023/09/15 00:59:55;;;;;;;3.47;2.20;;;14.00;99.90;;;;;;4917574;29;20512;-71
2023/09/15 01:02:21;;;;;;;2.93;2.37;;;14.00;99.90;;;;;;4917828;29;20330;-71
2023/09/15 01:04:47;;;;;;;3.50;2.20;;;14.00;99.90;;;;;;4917404;29;20912;-71
2023/09/15 01:07:13;;;;;;;2.87;2.60;;;13.90;99.90;;;;;;4917891;29;20180;-71
2023/09/15 01:09:42;;;;;;;2.77;2.30;;;13.90;99.90;;;;;;4917868;29;20540;-71
2023/09/15 01:12:08;;;;;;;3.53;3.13;;;13.90;99.90;;;;;;4917291;29;20511;-71
2023/09/15 01:14:35;;;;;;;5.17;2.87;;;13.90;99.90;;;;;;4917020;29;20454;-71
2023/09/15 01:17:15;;;;;;;3.10;2.70;;;13.90;99.90;;;;;;4917359;29;20760;-71
2023/09/15 01:19:53;;;;;;;4.63;2.50;;;13.80;99.90;;;;;;4917534;29;20407;-71
2023/09/15 01:22:53;;;;;;;3.53;3.00;;;13.80;99.90;;;;;;4920171;29;21138;-71
2023/09/15 01:25:39;;;;;;;3.87;3.17;;;13.80;99.90;;;;;;4927592;29;20533;-72
2023/09/15 01:28:23;;;;;;;3.00;2.50;;;13.80;99.90;;;;;;4927684;29;20460;-71
2023/09/15 01:30:50;;;;;;;3.70;3.20;;;13.80;99.90;;;;;;4928944;29;20412;-71
2023/09/15 01:33:18;;;;;;;7.40;3.57;;;13.70;99.90;;;;;;4930194;29;20418;-71
2023/09/15 01:35:44;;;;;;;3.70;3.03;;;13.80;99.90;;;;;;4922296;29;20452;-71
2023/09/15 01:38:09;;;;;;;4.40;3.40;;;13.70;99.90;;;;;;4924349;29;20911;-72
2023/09/15 01:40:37;;;;;;;5.03;2.60;;;13.70;99.90;;;;;;4920027;29;20528;-71
2023/09/15 01:43:03;;;;;;;2.93;2.47;;;13.70;99.90;;;;;;4916856;29;20180;-71
2023/09/15 01:45:30;;;;;;;4.83;3.20;;;13.70;99.90;;;;;;4916483;29;20531;-72
2023/09/15 01:47:57;;;;;;;6.37;3.27;;;13.70;99.90;;;;;;4916740;29;20462;-72
2023/09/15 01:50:23;;;;;;;5.57;3.87;;;13.60;99.90;;;;;;4916580;29;20423;-72
2023/09/15 01:52:49;;;;;;;6.60;3.73;;;13.60;99.90;;;;;;4915223;29;20849;-72
2023/09/15 01:55:16;;;;;;;5.20;3.30;;;13.50;99.90;;;;;;4916468;29;20498;-72
2023/09/15 01:57:42;;;;;;;4.03;3.60;;;13.50;99.90;;;;;;4916353;29;20519;-72
2023/09/15 02:00:08;;;;;;;3.37;3.07;;;13.50;99.90;;;;;;4916381;29;20514;-71
2023/09/15 02:02:34;;;;;;;3.73;3.00;;;13.50;99.90;;;;;;4915694;29;20670;-71
2023/09/15 02:05:00;;;;;;;4.07;3.00;;;13.50;99.90;;;;;;4916429;29;20478;-71
2023/09/15 02:07:25;;;;;;;3.50;3.20;;;13.50;99.90;;;;;;4916348;29;20180;-72
2023/09/15 02:09:51;;;;;;;4.10;2.83;;;13.60;99.90;;;;;;4916095;29;20651;-71
2023/09/15 02:12:16;;;;;;;3.30;2.87;;;13.60;99.90;;;;;;4914838;29;20238;-72
2023/09/15 02:14:44;;;;;;;3.17;2.77;;;13.50;99.90;;;;;;4916206;29;20212;-72
2023/09/15 02:17:13;;;;;;;4.77;3.33;;;13.50;99.90;;;;;;4916135;29;20186;-72
2023/09/15 02:19:39;;;;;;;4.07;3.60;;;13.50;99.90;;;;;;4916311;29;20412;-72
2023/09/15 02:22:04;;;;;;;3.37;3.17;;;13.50;99.90;;;;;;4915868;29;20826;-72
2023/09/15 02:24:31;;;;;;;6.33;3.83;;;13.50;99.90;;;;;;4915701;29;20254;-72
2023/09/15 02:26:57;;;;;;;3.50;3.20;;;13.50;99.90;;;;;;4915920;29;20172;-72
2023/09/15 02:29:23;;;;;;;3.27;2.70;;;13.50;99.90;;;;;;4915930;29;20929;-72
2023/09/15 02:31:51;;;;;;;4.23;3.70;;;13.50;99.90;;;;;;4915451;29;20413;-72
2023/09/15 02:34:16;;;;;;;4.10;3.70;;;13.50;99.90;;;;;;4916009;29;20270;-72
2023/09/15 02:36:43;;;;;;;4.53;3.83;;;13.40;99.90;;;;;;4915781;29;20931;-72
2023/09/15 02:39:09;;;;;;;3.57;3.27;;;13.50;99.90;;;;;;4915925;29;20729;-72
2023/09/15 02:41:35;;;;;;;3.83;3.50;;;13.40;99.90;;;;;;4915371;29;20463;-72
2023/09/15 02:44:00;;;;;;;3.93;3.57;;;13.40;99.90;;;;;;4915822;29;20532;-72
2023/09/15 02:46:26;;;;;;;4.77;3.37;;;13.40;99.90;;;;;;4915490;29;20286;-72
2023/09/15 02:48:52;;;;;;;4.00;3.23;;;13.40;99.90;;;;;;4915767;29;20191;-72
2023/09/15 02:51:18;;;;;;;4.40;3.50;;;13.40;99.90;;;;;;4915846;29;20415;-71
2023/09/15 02:53:43;;;;;;;3.33;3.03;;;13.40;99.90;;;;;;4915447;29;20263;-72
2023/09/15 02:56:09;;;;;;;4.03;3.33;;;13.40;99.90;;;;;;4909303;29;20571;-72
2023/09/15 02:58:35;;;;;;;4.63;3.30;;;13.40;99.90;;;;;;4914346;29;20183;-71
2023/09/15 03:01:11;;;;;;;4.20;3.40;;;13.40;99.90;;;;;;4913933;29;20206;-72
2023/09/15 03:03:37;;;;;;;4.10;3.70;;;13.30;99.90;;;;;;4915468;29;20925;-72
2023/09/15 03:06:04;;;;;;;4.20;2.80;;;13.30;99.90;;;;;;4915549;29;20443;-72
2023/09/15 03:08:30;;;;;;;3.90;3.60;;;13.30;99.90;;;;;;4915410;29;20419;-72
2023/09/15 03:10:55;;;;;;;4.00;3.40;;;13.30;99.90;;;;;;4915201;29;20851;-72
2023/09/15 03:13:21;;;;;;;4.13;3.53;;;13.20;99.90;;;;;;4918188;29;20183;-72
2023/09/15 03:15:46;;;;;;;5.53;3.90;;;13.20;99.90;;;;;;4919419;29;20218;-72
2023/09/15 03:18:12;;;;;;;6.83;5.03;;;13.20;99.90;;;;;;4919708;29;20278;-72
2023/09/15 03:20:38;;;;;;;4.03;3.63;;;13.20;99.90;;;;;;4919253;29;20705;-72
2023/09/15 03:23:03;;;;;;;5.90;3.63;;;13.20;99.90;;;;;;4919041;29;20176;-72
2023/09/15 03:25:29;;;;;;;4.40;4.00;;;13.20;99.90;;;;;;4919337;29;20686;-72
2023/09/15 03:27:55;;;;;;;8.73;5.23;;;13.20;99.90;;;;;;4919210;29;20415;-72
2023/09/15 03:30:21;;;;;;;5.20;3.60;;;13.20;99.90;;;;;;4919067;29;20226;-72
2023/09/15 03:32:47;;;;;;;6.13;3.93;;;13.20;99.90;;;;;;4918796;29;20422;-72
2023/09/15 03:35:13;;;;;;;5.03;3.40;;;13.20;99.90;;;;;;4918940;29;20294;-71
2023/09/15 03:37:39;;;;;;;7.33;4.00;;;13.20;99.90;;;;;;4919237;29;20506;-72
2023/09/15 03:40:07;;;;;;;5.63;4.17;;;13.20;99.90;;;;;;4917740;29;20425;-72
2023/09/15 03:42:34;;;;;;;9.93;4.60;;;13.20;99.90;;;;;;4918594;29;20575;-71
2023/09/15 03:44:59;;;;;;;6.20;3.73;;;13.20;99.90;;;;;;4918823;29;20440;-72
2023/09/15 03:47:25;;;;;;;5.10;4.60;;;13.20;99.90;;;;;;4918575;29;20431;-71
2023/09/15 03:49:51;;;;;;;5.80;4.40;;;13.20;99.90;;;;;;4918869;29;20639;-72
2023/09/15 03:52:17;;;;;;;6.30;3.73;;;13.20;99.90;;;;;;4918549;29;20430;-72
2023/09/15 03:54:42;;;;;;;8.43;4.77;;;13.20;99.90;;;;;;4918744;29;20687;-72
2023/09/15 03:57:08;;;;;;;6.30;3.97;;;13.10;99.90;;;;;;4918551;29;20211;-72
2023/09/15 03:59:34;;;;;;;6.10;4.60;;;13.10;99.90;;;;;;4918531;29;20614;-72
2023/09/15 04:02:01;;;;;;;6.33;5.00;;;13.10;99.90;;;;;;4918225;29;20200;-71
2023/09/15 04:04:26;;;;;;;6.43;4.27;;;13.10;99.90;;;;;;4918412;29;20416;-71
2023/09/15 04:06:53;;;;;;;5.63;4.40;;;13.10;99.90;;;;;;4918911;29;20884;-71
2023/09/15 04:09:19;;;;;;;6.20;4.67;;;13.10;99.90;;;;;;4917490;29;20200;-71
2023/09/15 04:11:44;;;;;;;7.30;4.90;;;13.10;99.90;;;;;;4918386;29;20458;-71
2023/09/15 04:14:10;;;;;;;5.60;4.83;;;13.10;99.90;;;;;;4918684;29;20190;-70
2023/09/15 04:16:37;;;;;;;7.33;4.70;;;13.10;99.90;;;;;;4918341;29;20187;-71
2023/09/15 04:19:03;;;;;;;8.77;4.83;;;13.10;99.90;;;;;;4918318;29;20179;-71
2023/09/15 04:21:29;;;;;;;5.90;4.10;;;13.10;99.90;;;;;;4918117;29;20471;-71
2023/09/15 04:23:54;;;;;;;6.90;4.70;;;13.10;99.90;;;;;;4917658;29;20423;-71
2023/09/15 04:26:20;;;;;;;6.43;5.13;;;13.10;99.90;;;;;;4918176;29;20635;-72
2023/09/15 04:28:46;;;;;;;6.83;5.43;;;13.10;99.90;;;;;;4918484;29;20182;-71
2023/09/15 04:31:12;;;;;;;5.60;4.07;;;13.00;99.90;;;;;;4918136;29;20183;-71
2023/09/15 04:33:37;;;;;;;7.53;4.43;;;13.00;99.90;;;;;;4917934;29;20781;-71
2023/09/15 04:36:03;;;;;;;7.00;4.30;;;13.00;99.90;;;;;;4917859;29;20199;-71
2023/09/15 04:38:30;;;;;;;4.90;3.80;;;13.00;99.90;;;;;;4918025;29;20191;-71
2023/09/15 04:40:56;;;;;;;7.50;5.00;;;13.00;99.90;;;;;;4917639;29;20562;-71
2023/09/15 04:43:22;;;;;;;5.20;4.23;;;13.00;99.90;;;;;;4917981;29;20426;-71
2023/09/15 04:45:47;;;;;;;6.77;4.53;;;13.00;99.90;;;;;;4917628;29;20252;-71
2023/09/15 04:48:15;;;;;;;8.70;5.13;;;13.00;99.90;;;;;;4917703;29;20283;-72
2023/09/15 04:50:41;;;;;;;4.30;3.87;;;13.00;99.90;;;;;;4916016;29;20192;-72
2023/09/15 04:53:07;;;;;;;5.80;5.13;;;13.00;99.90;;;;;;4911801;29;20420;-72
2023/09/15 04:55:33;;;;;;;4.40;4.03;;;13.00;99.90;;;;;;4917626;29;20825;-73
2023/09/15 04:58:00;;;;;;;5.67;4.80;;;13.00;99.90;;;;;;4918106;29;20193;-71
2023/09/15 05:00:26;;;;;;;5.70;4.20;;;13.00;99.90;;;;;;4917639;29;20423;-72
2023/09/15 05:02:58;;;;;;;5.73;5.03;;;13.00;99.90;;;;;;4917984;29;20462;-72
2023/09/15 05:05:23;;;;;;;7.63;4.90;;;13.10;99.90;;;;;;4916685;29;20556;-71
2023/09/15 05:07:49;;;;;;;6.97;4.70;;;13.10;99.90;;;;;;4917757;29;20452;-70
2023/09/15 05:10:15;;;;;;;9.53;5.23;;;13.10;99.90;;;;;;4909262;29;20370;-71
2023/09/15 05:12:40;;;;;;;5.27;4.77;;;13.10;99.90;;;;;;4930238;29;20186;-71
2023/09/15 05:15:07;;;;;;;8.30;5.47;;;13.10;99.90;;;;;;4926480;29;20206;-71
2023/09/15 05:17:33;;;;;;;5.67;4.10;;;13.10;99.90;;;;;;4924589;29;20222;-73
2023/09/15 05:19:58;;;;;;;5.67;4.90;;;13.10;99.90;;;;;;4927101;29;20517;-73
2023/09/15 05:22:24;;;;;;;6.70;6.00;;;13.20;99.90;;;;;;4930814;29;20960;-73
2023/09/15 05:24:49;;;;;;;5.83;5.00;;;13.20;99.90;;;;;;4929060;29;20243;-72
2023/09/15 05:27:15;;;;;;;5.13;4.00;;;13.30;99.90;;;;;;4919827;29;20193;-72
2023/09/15 05:29:41;;;;;;;5.10;4.60;;;13.30;99.90;;;;;;4917787;29;20184;-72
2023/09/15 05:32:06;;;;;;;4.50;4.10;;;13.30;99.90;;;;;;4911740;29;20194;-72
2023/09/15 05:34:32;;;;;;;6.00;4.87;;;13.40;99.90;;;;;;4915806;29;20199;-72
2023/09/15 05:36:58;;;;;;;6.23;4.53;;;13.50;99.90;;;;;;4915849;29;20258;-72
2023/09/15 05:39:23;;;;;;;6.67;4.83;;;13.60;99.90;;;;;;4916659;29;20734;-72
2023/09/15 05:41:49;;;;;;;8.80;6.70;;;13.80;99.90;;;;;;4916577;29;20219;-71
2023/09/15 05:44:16;;;;;;;4.60;3.90;;;14.00;99.90;;;;;;4917061;29;20429;-72
2023/09/15 05:46:42;;;;;;;4.83;4.00;;;14.20;99.90;;;;;;4917318;29;20180;-71
2023/09/15 05:49:08;;;;;;;5.40;4.30;;;14.50;99.90;;;;;;4912225;29;20553;-73
2023/09/15 05:51:34;;;;;;;4.27;3.70;;;14.90;99.90;;;;;;4916729;29;20451;-70
2023/09/15 05:53:59;;;;;;;8.37;4.30;;;15.10;99.90;;;;;;4916449;29;20338;-71
2023/09/15 05:56:31;;;;;;;5.03;4.00;;;15.50;99.90;;;;;;5068813;28;20535;-72
2023/09/15 05:58:58;;;;;;;6.37;4.80;;;15.70;99.90;;;;;;5049022;28;20478;-72
2023/09/15 06:01:24;;;;;;;4.43;4.03;;;16.00;99.90;;;;;;5048955;28;20201;-72
2023/09/15 06:03:49;;;;;;;5.00;3.20;;;16.00;99.90;;;;;;5048685;28;20421;-72
2023/09/15 06:06:18;;;;;;;4.87;4.00;;;16.30;99.90;;;;;;5048633;28;20478;-72
2023/09/15 06:08:44;;;;;;;4.10;3.40;;;16.80;99.90;;;;;;5049156;28;20584;-72
2023/09/15 06:11:10;;;;;;;4.97;3.80;;;17.40;99.90;;;;;;5048836;28;20454;-72
2023/09/15 06:13:36;;;;;;;5.20;3.73;;;17.80;99.90;;;;;;5048769;28;20232;-71
2023/09/15 06:16:04;;;;;;;5.20;3.20;;;18.00;99.90;;;;;;5048962;28;20642;-72
2023/09/15 06:18:33;;;;;;;5.00;2.90;;;18.30;99.90;;;;;;5048914;28;20826;-72
2023/09/15 06:20:58;;;;;;;4.23;3.80;;;18.50;99.90;;;;;;5048488;28;20413;-72
2023/09/15 06:23:24;;;;;;;7.50;3.80;;;18.30;99.90;;;;;;5048527;28;20414;-72
2023/09/15 06:25:51;;;;;;;5.00;3.67;;;18.50;99.90;;;;;;5048467;28;20231;-72
2023/09/15 06:28:17;;;;;;;5.43;3.90;;;18.90;99.90;;;;;;5090987;22;20544;-70
2023/09/15 06:30:43;;;;;;;3.77;3.30;;;19.40;99.90;;;;;;5066765;28;20850;-70
2023/09/15 06:33:08;;;;;;;5.33;3.43;;;20.10;99.90;;;;;;5066623;28;20161;-70
2023/09/15 06:35:34;;;;;;;5.83;2.57;;;19.80;99.90;;;;;;5064953;28;20342;-70
2023/09/15 06:38:00;;;;;;;4.00;3.10;;;20.20;99.90;;;;;;5066540;28;20199;-70
2023/09/15 06:40:26;;;;;;;4.07;3.07;;;19.60;99.90;;;;;;5066641;28;20167;-70
2023/09/15 06:42:52;;;;;;;5.00;3.40;;;19.70;99.90;;;;;;5065970;28;20427;-70
2023/09/15 06:45:17;;;;;;;5.43;3.93;;;20.10;99.90;;;;;;5066016;28;20184;-72
2023/09/15 06:47:43;;;;;;;4.80;3.37;;;20.40;99.90;;;;;;5066023;28;20194;-70
2023/09/15 06:50:09;;;;;;;3.37;2.77;;;20.40;99.90;;;;;;5066686;28;20197;-71
2023/09/15 06:52:34;;;;;;;4.20;3.80;;;20.10;99.90;;;;;;5066421;28;20300;-71
2023/09/15 06:55:00;;;;;;;8.00;3.67;;;19.70;99.90;;;;;;5066193;28;20222;-71
2023/09/15 06:57:26;;;;;;;5.53;3.47;;;20.20;99.90;;;;;;5065808;28;20214;-71
2023/09/15 06:59:52;;;;;;;3.20;2.80;;;20.90;99.90;;;;;;5065752;28;20167;-70
2023/09/15 07:02:17;;;;;;;6.40;3.70;;;21.30;99.90;;;;;;5065526;28;20781;-70
2023/09/15 07:04:43;;;;;;;3.63;2.70;;;21.20;99.90;;;;;;5065351;28;20427;-70
2023/09/15 07:07:10;;;;;;;3.63;3.23;;;21.70;99.90;;;;;;5056525;28;20249;-70
2023/09/15 07:09:36;;;;;;;4.00;2.70;;;21.90;99.90;;;;;;5052224;28;20204;-70
2023/09/15 07:12:01;;;;;;;6.53;3.50;;;21.60;99.90;;;;;;5052322;28;20455;-70
2023/09/15 07:14:27;;;;;;;3.93;3.40;;;22.10;99.90;;;;;;5052017;28;20198;-70
2023/09/15 07:16:53;;;;;;;3.87;3.47;;;23.20;99.90;;;;;;5051823;28;20207;-69
2023/09/15 07:19:18;;;;;;;2.77;2.40;;;23.00;99.90;;;;;;5051951;28;20510;-68
2023/09/15 07:21:44;;;;;;;3.00;2.40;;;22.60;99.90;;;;;;5052105;28;20228;-68
2023/09/15 07:24:11;;;;;;;5.10;3.10;;;22.80;99.90;;;;;;5034755;28;20765;-70
2023/09/15 07:26:37;;;;;;;4.10;3.00;;;23.20;99.90;;;;;;5031800;28;20453;-71
2023/09/15 07:29:03;;;;;;;3.43;3.13;;;22.90;99.90;;;;;;5031952;28;20411;-70
2023/09/15 07:31:33;;;;;;;3.90;3.07;;;23.10;99.90;;;;;;5031705;28;20175;-70
2023/09/15 07:33:58;;;;;;;3.27;2.97;;;22.80;99.90;;;;;;5031843;28;20414;-69
2023/09/15 07:36:24;;;;;;;5.83;3.17;;;22.80;99.90;;;;;;5031786;28;20464;-69
2023/09/15 07:38:50;;;;;;;3.00;2.80;;;23.40;99.90;;;;;;5031924;28;20233;-69
2023/09/15 07:41:15;;;;;;;3.57;2.57;;;22.80;99.90;;;;;;5037359;28;20417;-69
2023/09/15 07:43:41;;;;;;;4.00;3.23;;;23.40;99.90;;;;;;5051658;28;20171;-69
2023/09/15 07:46:06;;;;;;;4.73;2.90;;;23.10;99.90;;;;;;5051654;28;20255;-68
2023/09/15 07:48:32;;;;;;;3.30;2.70;;;23.00;99.90;;;;;;5049856;28;20197;-70
2023/09/15 07:50:58;;;;;;;3.90;2.80;;;22.50;99.90;;;;;;5051716;28;20182;-70
2023/09/15 07:53:23;;;;;;;4.30;2.70;;;22.30;99.90;;;;;;5044903;28;20258;-68
2023/09/15 07:55:49;;;;;;;7.13;3.00;;;23.10;99.90;;;;;;5031349;28;20206;-70
2023/09/15 07:58:15;;;;;;;4.63;2.83;;;23.50;99.90;;;;;;5031202;28;20258;-68
2023/09/15 08:00:41;;;;;;;3.40;3.10;;;23.50;99.90;;;;;;5030953;28;20175;-70
2023/09/15 08:03:06;;;;;;;5.37;3.30;;;22.40;99.90;;;;;;5030589;28;20167;-68
2023/09/15 08:05:32;;;;;;;3.43;3.07;;;22.50;99.90;;;;;;5031642;28;20180;-69
2023/09/15 08:07:57;;;;;;;4.37;3.00;;;22.80;99.90;;;;;;5031483;28;20599;-71
2023/09/15 08:10:23;;;;;;;3.20;2.90;;;23.00;99.90;;;;;;5031426;28;20175;-69
2023/09/15 08:12:52;;;;;;;3.77;2.30;;;22.70;99.90;;;;;;5031063;28;20209;-69
2023/09/15 08:15:19;;;;;;;3.40;3.00;;;22.00;99.90;;;;;;5031404;28;20525;-71
2023/09/15 08:17:44;;;;;;;4.63;3.47;;;23.20;99.90;;;;;;5030597;28;20473;-70
2023/09/15 08:20:11;;;;;;;3.60;3.30;;;23.10;99.90;;;;;;5031494;28;20778;-70
2023/09/15 08:22:38;;;;;;;4.43;3.30;;;23.60;99.90;;;;;;5031461;28;20171;-70
2023/09/15 08:25:05;;;;;;;4.10;3.00;;;23.60;99.90;;;;;;5050775;28;20409;-70
2023/09/15 08:27:30;;;;;;;3.80;2.60;;;24.00;99.90;;;;;;5050879;28;20555;-70
2023/09/15 08:29:56;;;;;;;4.10;2.73;;;23.90;99.90;;;;;;5051022;28;20933;-72
2023/09/15 08:32:21;;;;;;;4.90;3.27;;;24.50;99.90;;;;;;5050900;28;20171;-70
2023/09/15 08:34:47;;;;;;;3.27;2.70;;;24.00;99.90;;;;;;5049901;28;20199;-70
2023/09/15 08:37:12;;;;;;;5.60;3.07;;;24.40;99.90;;;;;;5030891;28;20194;-68
2023/09/15 08:39:38;;;;;;;4.50;3.00;;;23.10;99.90;;;;;;5038942;28;20166;-71
2023/09/15 08:42:08;;;;;;;3.77;2.60;;;23.30;99.90;;;;;;5050973;28;20634;-72
2023/09/15 08:44:35;;;;;;;3.83;2.70;;;23.00;99.90;;;;;;5050571;28;20185;-70
2023/09/15 08:47:01;;;;;;;5.30;3.80;;;23.60;99.90;;;;;;5030784;28;20429;-71
2023/09/15 08:49:28;;;;;;;2.80;2.30;;;24.00;99.90;;;;;;5030654;28;20722;-70
2023/09/15 08:51:55;;;;;;;4.67;2.97;;;24.00;99.90;;;;;;5029300;28;20754;-71
2023/09/15 08:54:21;;;;;;;4.90;3.20;;;24.60;99.90;;;;;;5030758;28;20760;-70
2023/09/15 08:56:47;;;;;;;3.27;3.00;;;24.20;99.90;;;;;;5030449;28;20438;-71
2023/09/15 08:59:15;;;;;;;4.70;3.27;;;23.80;99.90;;;;;;5030425;28;20504;-71
2023/09/15 09:01:40;;;;;;;5.40;3.07;;;23.70;99.90;;;;;;5030162;28;20737;-73
2023/09/15 09:04:07;;;;;;;3.60;2.70;;;24.70;99.90;;;;;;5030565;28;20417;-70
2023/09/15 09:06:34;;;;;;;3.00;2.63;;;24.40;99.90;;;;;;5030231;28;20210;-72
2023/09/15 09:09:01;;;;;;;5.03;3.10;;;24.00;99.90;;;;;;5033097;28;20425;-70
2023/09/15 09:11:28;;;;;;;3.67;3.30;;;24.30;99.90;;;;;;5050097;28;20425;-70
2023/09/15 09:13:53;;;;;;;5.00;2.70;;;24.50;99.90;;;;;;5050032;28;20420;-70
2023/09/15 09:16:20;;;;;;;3.27;2.83;;;24.90;99.90;;;;;;5050081;28;20448;-71
2023/09/15 09:19:00;;;;;;;2.90;2.60;;;25.10;99.90;;;;;;5049978;28;20727;-70
2023/09/15 09:21:27;;;;;;;5.13;2.60;;;24.10;99.90;;;;;;5050043;28;20484;-70
2023/09/15 09:23:54;;;;;;;5.70;5.10;;;24.00;99.90;;;;;;5034607;28;20518;-69
2023/09/15 09:26:19;;;;;;;2.93;2.63;;;24.00;99.90;;;;;;5030387;28;20975;-68
2023/09/15 09:28:45;;;;;;;5.10;2.83;;;23.90;99.90;;;;;;5047340;28;20508;-69
2023/09/15 09:31:11;;;;;;;4.40;2.30;;;23.60;99.90;;;;;;5050271;28;20196;-69
2023/09/15 09:33:38;;;;;;;3.37;2.30;;;23.80;99.90;;;;;;5050240;28;20234;-68
2023/09/15 09:36:14;;;;;;;4.70;2.97;;;23.70;99.90;;;;;;5050118;28;20483;-70
2023/09/15 09:38:41;;;;;;;2.43;2.23;;;23.20;99.90;;;;;;5040116;28;20765;-70
2023/09/15 09:41:09;;;;;;;2.10;1.90;;;23.50;99.90;;;;;;5030082;28;20498;-72
2023/09/15 09:43:35;;;;;;;7.03;2.87;;;23.50;99.90;;;;;;5029789;28;20406;-70
2023/09/15 09:46:03;;;;;;;3.93;2.27;;;23.20;99.90;;;;;;5030087;28;20732;-70
2023/09/15 09:48:29;;;;;;;2.60;2.23;;;23.10;99.90;;;;;;5030306;28;20479;-69
2023/09/15 09:50:55;;;;;;;7.40;6.47;;;23.00;99.90;;;;;;5030390;28;20936;-69
2023/09/15 09:53:33;;;;;;;4.10;3.40;;;22.70;99.90;;;;;;5029815;28;20463;-70
2023/09/15 09:56:00;;;;;;;5.67;4.70;;;22.70;99.90;;;;;;5030398;28;20209;-69
2023/09/15 09:58:27;;;;;;;8.33;4.20;;;22.50;99.90;;;;;;5029782;28;20440;-71
2023/09/15 10:00:53;;;;;;;4.30;3.20;;;22.30;99.90;;;;;;5029732;28;20442;-70
2023/09/15 10:03:22;;;;;;;5.63;2.30;;;22.10;99.90;;;;;;5029858;28;20404;-71
2023/09/15 10:05:48;;;;;;;5.93;3.93;;;22.00;99.90;;;;;;5029705;28;20777;-70
2023/09/15 10:08:15;;;;;;;4.90;3.50;;;22.10;99.90;;;;;;5029742;28;20442;-71
2023/09/15 10:10:44;;;;;;;3.00;2.67;;;22.20;99.90;;;;;;5030047;28;20420;-70
2023/09/15 10:13:10;;;;;;;7.63;4.83;;;22.10;99.90;;;;;;5029880;28;20423;-70
2023/09/15 10:15:45;;;;;;;8.90;2.90;;;22.20;99.90;;;;;;5030055;28;20515;-72
2023/09/15 10:18:14;;;;;;;3.60;3.30;;;21.90;99.90;;;;;;5029870;28;20565;-70
2023/09/15 10:20:41;;;;;;;3.83;3.37;;;21.60;99.90;;;;;;5029618;28;20419;-70
2023/09/15 10:23:07;;;;;;;4.23;3.17;;;21.40;99.90;;;;;;5032549;28;20472;-70
2023/09/15 10:25:42;;;;;;;3.60;2.87;;;21.60;99.90;;;;;;5048145;28;20422;-71
2023/09/15 10:28:10;;;;;;;2.30;2.00;;;21.80;99.90;;;;;;5049215;28;20209;-72
2023/09/15 10:30:37;;;;;;;3.27;2.37;;;21.40;99.90;;;;;;5049633;28;20876;-72
2023/09/15 10:33:07;;;;;;;2.83;2.33;;;21.40;99.90;;;;;;5049066;28;20420;-70
2023/09/15 10:35:33;;;;;;;2.80;2.50;;;21.20;99.90;;;;;;5049283;28;20979;-71
2023/09/15 10:38:05;;;;;;;3.47;2.43;;;21.40;99.90;;;;;;5046099;28;20437;-70
2023/09/15 10:40:46;;;;;;;3.57;3.10;;;21.70;99.90;;;;;;5029435;28;20917;-71
2023/09/15 10:43:13;;;;;;;2.87;2.40;;;21.90;99.90;;;;;;5036619;28;20419;-70
2023/09/15 10:45:39;;;;;;;2.80;2.40;;;21.80;99.90;;;;;;5053285;28;20436;-72
2023/09/15 10:48:05;;;;;;;3.87;2.80;;;21.80;99.90;;;;;;5034163;28;20439;-73
2023/09/15 10:50:32;;;;;;;3.47;2.63;;;21.80;99.90;;;;;;5033447;28;20187;-74
2023/09/15 10:53:07;;;;;;;2.67;2.43;;;22.00;99.90;;;;;;5034932;28;20422;-72
2023/09/15 10:55:33;;;;;;;2.93;2.50;;;21.90;99.90;;;;;;5053165;28;20485;-72
2023/09/15 10:57:59;;;;;;;3.50;2.93;;;21.60;99.90;;;;;;5052816;28;20882;-71
2023/09/15 11:00:25;;;;;;;3.73;2.90;;;21.90;99.90;;;;;;5052998;28;20172;-70
2023/09/15 11:02:52;;;;;;;3.63;3.10;;;21.70;99.90;;;;;;5052659;28;20800;-70
2023/09/15 11:05:18;;;;;;;4.70;3.60;;;21.70;99.90;;;;;;5040564;28;20423;-70
2023/09/15 11:07:46;;;;;;;4.00;3.00;;;21.90;99.90;;;;;;5032686;28;20848;-70
2023/09/15 11:10:12;;;;;;;2.80;2.60;;;21.90;99.90;;;;;;5033194;28;20662;-70
2023/09/15 11:12:37;;;;;;;4.23;3.00;;;21.90;99.90;;;;;;5032515;28;20418;-71
2023/09/15 11:15:04;;;;;;;3.93;2.73;;;21.90;99.90;;;;;;5031113;28;20292;-73
2023/09/15 11:17:31;;;;;;;6.27;4.23;;;21.50;99.90;;;;;;5031250;28;20333;-70
2023/09/15 11:19:59;;;;;;;6.53;3.53;;;21.60;99.90;;;;;;5032489;28;20419;-69
2023/09/15 11:22:25;;;;;;;4.00;2.60;;;21.60;99.90;;;;;;5032840;28;20417;-71
2023/09/15 11:24:51;;;;;;;6.77;4.73;;;21.40;99.90;;;;;;5041473;28;20423;-71
2023/09/15 11:27:17;;;;;;;6.80;5.20;;;21.70;99.90;;;;;;5032645;28;20552;-71
2023/09/15 11:29:43;;;;;;;3.80;3.00;;;21.70;99.90;;;;;;5041146;28;20691;-70
2023/09/15 11:32:08;;;;;;;3.50;3.03;;;21.60;99.90;;;;;;5032203;28;20463;-70
2023/09/15 11:34:35;;;;;;;6.50;3.30;;;21.50;99.90;;;;;;5032300;28;20202;-71
2023/09/15 11:37:01;;;;;;;7.43;3.23;;;21.70;99.90;;;;;;5032152;28;20291;-70
2023/09/15 11:39:28;;;;;;;5.70;4.27;;;22.10;99.90;;;;;;5032351;28;20441;-70
2023/09/15 11:41:54;;;;;;;2.87;2.57;;;22.00;99.90;;;;;;5031742;28;20465;-70
2023/09/15 11:44:21;;;;;;;3.60;2.70;;;22.10;99.90;;;;;;5032092;28;20447;-71
2023/09/15 11:46:50;;;;;;;3.30;2.63;;;21.90;99.90;;;;;;5048355;28;20625;-69
2023/09/15 11:49:16;;;;;;;3.20;2.90;;;21.90;99.90;;;;;;5052023;28;20873;-70
2023/09/15 11:51:43;;;;;;;3.90;2.90;;;21.80;99.90;;;;;;5051674;28;20447;-72
2023/09/15 11:54:09;;;;;;;4.83;4.00;;;21.80;99.90;;;;;;5050320;28;20418;-70
2023/09/15 11:56:36;;;;;;;3.93;2.70;;;22.00;99.90;;;;;;5051830;28;20542;-69
2023/09/15 11:59:02;;;;;;;3.33;2.67;;;22.20;99.90;;;;;;5051723;28;20478;-72
2023/09/15 12:01:29;;;;;;;3.27;2.60;;;22.10;99.90;;;;;;5050583;28;20435;-70
2023/09/15 12:03:55;;;;;;;3.00;2.70;;;22.40;99.90;;;;;;5051594;28;20587;-70
2023/09/15 12:06:21;;;;;;;2.83;2.27;;;22.50;99.90;;;;;;5039348;28;20421;-71
2023/09/15 12:08:49;;;;;;;2.90;2.33;;;22.60;99.90;;;;;;5032536;28;20311;-71
2023/09/15 12:11:15;;;;;;;3.70;2.50;;;22.60;99.90;;;;;;5032581;28;20543;-70
2023/09/15 12:13:41;;;;;;;2.70;2.17;;;22.70;99.90;;;;;;5032251;28;20452;-73
2023/09/15 12:16:17;;;;;;;4.57;3.77;;;22.60;99.90;;;;;;5032926;28;20455;-69
2023/09/15 12:18:47;;;;;;;3.03;2.40;;;22.70;99.90;;;;;;5048410;28;20478;-71
2023/09/15 12:21:14;;;;;;;3.40;2.33;;;22.40;99.90;;;;;;5053570;28;20982;-70
2023/09/15 12:23:40;;;;;;;5.40;3.53;;;22.70;99.90;;;;;;5038413;28;20658;-69
2023/09/15 12:26:06;;;;;;;3.00;2.57;;;22.70;99.90;;;;;;5031314;28;20413;-70
2023/09/15 12:28:32;;;;;;;2.07;1.97;;;22.70;99.90;;;;;;5031175;28;20920;-70
2023/09/15 12:31:01;;;;;;;2.87;2.57;;;22.90;99.90;;;;;;5031363;28;20185;-70
2023/09/15 12:33:29;;;;;;;4.20;2.57;;;22.80;99.90;;;;;;5069695;22;20490;-72
2023/09/15 12:35:56;;;;;;;3.53;3.10;;;22.70;99.90;;;;;;5072727;28;20551;-72
2023/09/15 12:38:22;;;;;;;2.83;2.60;;;22.60;99.90;;;;;;5071766;28;20423;-71
2023/09/15 12:40:50;;;;;;;3.53;2.90;;;22.60;99.90;;;;;;5073001;28;20417;-72
2023/09/15 12:43:16;;;;;;;5.97;4.77;;;22.70;99.90;;;;;;5072470;28;20206;-72
2023/09/15 12:45:42;;;;;;;4.40;3.30;;;22.70;99.90;;;;;;5072882;28;20409;-72